createdAt,value
2022-09-21T00:00:19.089Z,5.7
2022-09-21T00:01:19.157Z,5.7
2022-09-21T00:02:19.175Z,5.7
2022-09-21T00:03:19.144Z,5.7
2022-09-21T00:04:19.092Z,5.7
2022-09-21T00:05:19.111Z,5.7
2022-09-21T00:06:19.109Z,5.7
2022-09-21T00:07:19.096Z,5.7
2022-09-21T00:08:19.096Z,5.7
2022-09-21T00:09:19.099Z,5.7
2022-09-21T00:10:19.082Z,5.7
2022-09-21T00:11:19.103Z,5.7
2022-09-21T00:12:19.102Z,5.6
2022-09-21T00:13:19.091Z,5.6
2022-09-21T00:14:19.083Z,5.6
2022-09-21T00:15:19.115Z,5.6
2022-09-21T00:16:19.130Z,5.6
2022-09-21T00:17:19.198Z,5.6
2022-09-21T00:18:19.092Z,5.6
2022-09-21T00:19:19.097Z,5.6
2022-09-21T00:20:19.118Z,5.6
2022-09-21T00:21:19.081Z,5.5
2022-09-21T00:22:19.087Z,5.5
2022-09-21T00:23:19.092Z,5.5
2022-09-21T00:24:19.081Z,5.5
2022-09-21T00:25:19.119Z,5.5
2022-09-21T00:26:19.076Z,5.4
2022-09-21T00:27:19.184Z,5.4
2022-09-21T00:28:19.071Z,5.4
2022-09-21T00:29:19.215Z,5.4
2022-09-21T00:30:19.071Z,5.4
2022-09-21T00:31:19.084Z,5.3
2022-09-21T00:32:19.490Z,5.3
2022-09-21T00:33:19.085Z,5.3
2022-09-21T00:34:19.252Z,5.3
2022-09-21T00:35:19.097Z,5.3
2022-09-21T00:36:19.106Z,5.3
2022-09-21T00:37:19.114Z,5.3
2022-09-21T00:38:19.116Z,5.3
2022-09-21T00:39:19.103Z,5.3
2022-09-21T00:40:19.148Z,5.3
2022-09-21T00:41:19.122Z,5.3
2022-09-21T00:42:19.079Z,5.3
2022-09-21T00:43:19.096Z,5.3
2022-09-21T00:44:19.096Z,5.2
2022-09-21T00:45:19.128Z,5.2
2022-09-21T00:46:19.083Z,5.2
2022-09-21T00:47:19.082Z,5.2
2022-09-21T00:48:19.098Z,5.2
2022-09-21T00:49:19.103Z,5.2
2022-09-21T00:50:19.139Z,5.2
2022-09-21T00:51:19.094Z,5.2
2022-09-21T00:52:19.169Z,5.3
2022-09-21T00:53:19.109Z,5.3
2022-09-21T00:54:19.078Z,5.2
2022-09-21T00:55:19.134Z,5.3
2022-09-21T00:56:19.105Z,5.2
2022-09-21T00:57:19.094Z,5.3
2022-09-21T00:58:19.078Z,5.3
2022-09-21T00:59:21.471Z,5.3
2022-09-21T01:00:19.093Z,5.3
2022-09-21T01:01:19.139Z,5.3
2022-09-21T01:02:19.133Z,5.3
2022-09-21T01:03:19.100Z,5.3
2022-09-21T01:04:19.273Z,5.3
2022-09-21T01:05:19.109Z,5.2
2022-09-21T01:06:19.086Z,5.2
2022-09-21T01:07:19.101Z,5.2
2022-09-21T01:08:19.094Z,5.2
2022-09-21T01:09:19.097Z,5.2
2022-09-21T01:10:19.104Z,5.2
2022-09-21T01:11:19.084Z,5.2
2022-09-21T01:12:19.086Z,5.2
2022-09-21T01:13:19.106Z,5.2
2022-09-21T01:14:19.126Z,5.2
2022-09-21T01:15:19.179Z,5.2
2022-09-21T01:16:19.115Z,5.2
2022-09-21T01:17:19.102Z,5.2
2022-09-21T01:18:19.093Z,5.2
2022-09-21T01:19:19.099Z,5.2
2022-09-21T01:20:19.096Z,5.2
2022-09-21T01:21:19.096Z,5.2
2022-09-21T01:22:19.088Z,5.1
2022-09-21T01:23:19.112Z,5.1
2022-09-21T01:24:19.059Z,5.1
2022-09-21T01:25:19.154Z,5.1
2022-09-21T01:26:19.098Z,5
2022-09-21T01:27:19.149Z,5
2022-09-21T01:28:19.194Z,5
2022-09-21T01:29:19.409Z,5
2022-09-21T01:30:19.090Z,5
2022-09-21T01:31:19.113Z,5
2022-09-21T01:32:19.099Z,5
2022-09-21T01:33:19.095Z,5
2022-09-21T01:34:19.087Z,5
2022-09-21T01:35:19.099Z,5
2022-09-21T01:36:19.111Z,4.9
2022-09-21T01:37:19.102Z,5
2022-09-21T01:38:19.091Z,4.9
2022-09-21T01:39:19.081Z,4.9
2022-09-21T01:40:19.199Z,4.9
2022-09-21T01:41:19.079Z,4.9
2022-09-21T01:42:19.083Z,4.8
2022-09-21T01:43:19.110Z,4.8
2022-09-21T01:44:19.097Z,4.8
2022-09-21T01:45:19.115Z,4.8
2022-09-21T01:46:19.059Z,4.8
2022-09-21T01:47:19.099Z,4.8
2022-09-21T01:48:19.150Z,4.8
2022-09-21T01:49:19.106Z,4.8
2022-09-21T01:50:19.155Z,4.8
2022-09-21T01:51:19.496Z,4.8
2022-09-21T01:52:19.716Z,4.8
2022-09-21T01:53:19.761Z,4.8
2022-09-21T01:54:19.188Z,4.8
2022-09-21T01:55:19.200Z,4.8
2022-09-21T01:56:19.500Z,4.8
2022-09-21T01:57:19.146Z,4.7
2022-09-21T01:58:20.027Z,4.7
2022-09-21T01:59:19.232Z,4.7
2022-09-21T02:00:19.077Z,4.7
2022-09-21T02:01:19.185Z,4.7
2022-09-21T02:02:19.112Z,4.7
2022-09-21T02:03:19.218Z,4.7
2022-09-21T02:04:19.082Z,4.6
2022-09-21T02:05:19.402Z,4.6
2022-09-21T02:06:19.082Z,4.6
2022-09-21T02:07:19.141Z,4.6
2022-09-21T02:08:19.413Z,4.6
2022-09-21T02:09:19.694Z,4.6
2022-09-21T02:10:20.106Z,4.5
2022-09-21T02:11:19.064Z,4.5
2022-09-21T02:12:19.483Z,4.5
2022-09-21T02:13:19.259Z,4.5
2022-09-21T02:14:19.422Z,4.5
2022-09-21T02:15:19.061Z,4.4
2022-09-21T02:16:19.103Z,4.4
2022-09-21T02:17:19.406Z,4.4
2022-09-21T02:18:19.092Z,4.4
2022-09-21T02:19:19.327Z,4.4
2022-09-21T02:20:19.087Z,4.4
2022-09-21T02:21:19.198Z,4.4
2022-09-21T02:22:19.090Z,4.4
2022-09-21T02:23:19.108Z,4.4
2022-09-21T02:24:19.083Z,4.4
2022-09-21T02:25:19.101Z,4.4
2022-09-21T02:26:19.210Z,4.4
2022-09-21T02:27:19.070Z,4.4
2022-09-21T02:28:19.222Z,4.4
2022-09-21T02:29:19.103Z,4.4
2022-09-21T02:30:19.230Z,4.4
2022-09-21T02:31:19.593Z,4.4
2022-09-21T02:32:19.082Z,4.4
2022-09-21T02:33:19.118Z,4.4
2022-09-21T02:34:19.101Z,4.4
2022-09-21T02:35:19.097Z,4.4
2022-09-21T02:36:19.108Z,4.4
2022-09-21T02:37:19.083Z,4.4
2022-09-21T02:38:19.090Z,4.4
2022-09-21T02:39:19.093Z,4.4
2022-09-21T02:40:19.175Z,4.4
2022-09-21T02:41:19.105Z,4.4
2022-09-21T02:42:19.097Z,4.4
2022-09-21T02:43:19.199Z,4.4
2022-09-21T02:44:19.098Z,4.4
2022-09-21T02:45:19.086Z,4.4
2022-09-21T02:46:19.158Z,4.4
2022-09-21T02:47:19.090Z,4.4
2022-09-21T02:48:19.116Z,4.4
2022-09-21T02:49:19.094Z,4.4
2022-09-21T02:50:19.096Z,4.5
2022-09-21T02:51:19.097Z,4.5
2022-09-21T02:52:19.099Z,4.5
2022-09-21T02:53:19.131Z,4.4
2022-09-21T02:54:19.223Z,4.5
2022-09-21T02:55:19.093Z,4.4
2022-09-21T02:56:19.081Z,4.4
2022-09-21T02:57:19.093Z,4.4
2022-09-21T02:58:19.092Z,4.4
2022-09-21T02:59:19.106Z,4.4
2022-09-21T03:00:19.084Z,4.4
2022-09-21T03:01:19.126Z,4.4
2022-09-21T03:02:19.095Z,4.4
2022-09-21T03:03:19.101Z,4.4
2022-09-21T03:04:19.088Z,4.4
2022-09-21T03:05:19.094Z,4.4
2022-09-21T03:06:19.085Z,4.4
2022-09-21T03:07:19.088Z,4.4
2022-09-21T03:08:19.081Z,4.4
2022-09-21T03:09:19.096Z,4.4
2022-09-21T03:10:19.091Z,4.4
2022-09-21T03:11:19.097Z,4.4
2022-09-21T03:12:19.106Z,4.4
2022-09-21T03:13:19.103Z,4.4
2022-09-21T03:14:19.095Z,4.4
2022-09-21T03:15:19.107Z,4.4
2022-09-21T03:16:19.387Z,4.4
2022-09-21T03:17:19.099Z,4.4
2022-09-21T03:18:19.090Z,4.4
2022-09-21T03:19:19.105Z,4.4
2022-09-21T03:20:19.096Z,4.4
2022-09-21T03:21:19.091Z,4.4
2022-09-21T03:22:19.096Z,4.4
2022-09-21T03:23:19.127Z,4.4
2022-09-21T03:24:19.105Z,4.4
2022-09-21T03:25:19.105Z,4.4
2022-09-21T03:26:19.092Z,4.4
2022-09-21T03:27:19.109Z,4.4
2022-09-21T03:28:19.089Z,4.4
2022-09-21T03:29:19.095Z,4.4
2022-09-21T03:30:19.102Z,4.4
2022-09-21T03:31:19.105Z,4.4
2022-09-21T03:32:19.085Z,4.4
2022-09-21T03:33:19.097Z,4.4
2022-09-21T03:34:19.103Z,4.4
2022-09-21T03:35:19.092Z,4.4
2022-09-21T03:36:19.086Z,4.4
2022-09-21T03:37:19.216Z,4.4
2022-09-21T03:38:19.068Z,4.4
2022-09-21T03:39:19.097Z,4.4
2022-09-21T03:40:19.180Z,4.4
2022-09-21T03:41:19.088Z,4.4
2022-09-21T03:42:19.233Z,4.4
2022-09-21T03:43:19.060Z,4.4
2022-09-21T03:44:19.165Z,4.4
2022-09-21T03:45:19.080Z,4.4
2022-09-21T03:46:19.390Z,4.3
2022-09-21T03:47:19.642Z,4.3
2022-09-21T03:48:19.113Z,4.3
2022-09-21T03:49:19.091Z,4.3
2022-09-21T03:50:19.094Z,4.3
2022-09-21T03:51:19.098Z,4.3
2022-09-21T03:52:19.110Z,4.3
2022-09-21T03:53:19.088Z,4.3
2022-09-21T03:54:19.101Z,4.3
2022-09-21T03:55:19.099Z,4.3
2022-09-21T03:56:19.094Z,4.3
2022-09-21T03:57:19.086Z,4.3
2022-09-21T03:58:19.112Z,4.3
2022-09-21T03:59:19.094Z,4.3
2022-09-21T04:00:19.090Z,4.3
2022-09-21T04:01:19.281Z,4.3
2022-09-21T04:02:19.131Z,4.3
2022-09-21T04:03:19.103Z,4.3
2022-09-21T04:04:19.083Z,4.2
2022-09-21T04:05:19.096Z,4.2
2022-09-21T04:06:19.103Z,4.2
2022-09-21T04:07:19.075Z,4.2
2022-09-21T04:08:19.072Z,4.2
2022-09-21T04:09:19.190Z,4.2
2022-09-21T04:10:19.074Z,4.2
2022-09-21T04:11:19.177Z,4.1
2022-09-21T04:12:19.065Z,4.1
2022-09-21T04:13:19.169Z,4.1
2022-09-21T04:14:19.062Z,4.1
2022-09-21T04:15:19.103Z,4.1
2022-09-21T04:16:19.079Z,4.1
2022-09-21T04:17:19.273Z,4
2022-09-21T04:18:19.638Z,4
2022-09-21T04:19:19.135Z,4
2022-09-21T04:20:19.435Z,4
2022-09-21T04:21:19.707Z,4
2022-09-21T04:22:19.518Z,3.9
2022-09-21T04:23:20.209Z,4
2022-09-21T04:24:19.414Z,3.9
2022-09-21T04:25:19.090Z,3.9
2022-09-21T04:26:19.077Z,3.9
2022-09-21T04:27:19.324Z,3.9
2022-09-21T04:28:19.073Z,3.9
2022-09-21T04:29:19.376Z,3.9
2022-09-21T04:30:19.122Z,3.9
2022-09-21T04:31:19.139Z,3.9
2022-09-21T04:32:19.112Z,3.9
2022-09-21T04:33:19.119Z,3.9
2022-09-21T04:34:19.246Z,3.9
2022-09-21T04:35:19.120Z,3.9
2022-09-21T04:36:19.086Z,3.9
2022-09-21T04:37:19.092Z,3.9
2022-09-21T04:38:19.202Z,3.9
2022-09-21T04:39:19.175Z,3.9
2022-09-21T04:40:19.413Z,3.9
2022-09-21T04:41:19.578Z,3.9
2022-09-21T04:42:19.932Z,3.9
2022-09-21T04:43:22.537Z,3.9
2022-09-21T04:44:19.100Z,3.9
2022-09-21T04:45:19.282Z,3.9
2022-09-21T04:46:19.139Z,3.9
2022-09-21T04:47:19.087Z,3.9
2022-09-21T04:48:19.094Z,3.9
2022-09-21T04:49:19.081Z,3.9
2022-09-21T04:50:19.130Z,3.9
2022-09-21T04:51:19.101Z,3.9
2022-09-21T04:52:19.341Z,3.9
2022-09-21T04:53:19.112Z,3.9
2022-09-21T04:54:19.107Z,3.9
2022-09-21T04:55:19.134Z,3.9
2022-09-21T04:56:19.112Z,3.9
2022-09-21T04:57:19.099Z,3.8
2022-09-21T04:58:22.487Z,3.8
2022-09-21T04:59:19.087Z,3.8
2022-09-21T05:00:19.083Z,3.8
2022-09-21T05:01:19.137Z,3.8
2022-09-21T05:02:19.098Z,3.8
2022-09-21T05:03:19.194Z,3.8
2022-09-21T05:04:19.090Z,3.8
2022-09-21T05:05:19.103Z,3.8
2022-09-21T05:06:19.116Z,3.8
2022-09-21T05:07:19.320Z,3.8
2022-09-21T05:08:19.081Z,3.8
2022-09-21T05:09:19.090Z,3.7
2022-09-21T05:10:19.087Z,3.8
2022-09-21T05:11:19.110Z,3.8
2022-09-21T05:12:19.114Z,3.8
2022-09-21T05:13:19.872Z,3.8
2022-09-21T05:14:19.096Z,3.8
2022-09-21T05:15:19.090Z,3.8
2022-09-21T05:16:19.092Z,3.8
2022-09-21T05:17:19.108Z,3.8
2022-09-21T05:18:19.101Z,3.9
2022-09-21T05:19:19.092Z,3.9
2022-09-21T05:20:19.090Z,3.9
2022-09-21T05:21:19.114Z,3.9
2022-09-21T05:22:19.082Z,3.9
2022-09-21T05:23:19.218Z,3.9
2022-09-21T05:24:19.319Z,3.9
2022-09-21T05:25:19.733Z,3.9
2022-09-21T05:26:19.678Z,3.9
2022-09-21T05:27:19.166Z,3.9
2022-09-21T05:28:19.056Z,3.9
2022-09-21T05:29:19.223Z,3.9
2022-09-21T05:30:19.230Z,3.9
2022-09-21T05:31:19.934Z,3.9
2022-09-21T05:32:19.152Z,3.9
2022-09-21T05:33:19.100Z,3.9
2022-09-21T05:34:19.110Z,3.9
2022-09-21T05:35:19.432Z,3.9
2022-09-21T05:36:19.064Z,3.9
2022-09-21T05:37:19.083Z,3.9
2022-09-21T05:38:19.097Z,4
2022-09-21T05:39:19.121Z,4
2022-09-21T05:40:19.134Z,4
2022-09-21T05:41:19.080Z,4.1
2022-09-21T05:42:19.166Z,4.1
2022-09-21T05:43:19.408Z,4.1
2022-09-21T05:44:19.087Z,4.1
2022-09-21T05:45:19.088Z,4.1
2022-09-21T05:46:19.190Z,4.1
2022-09-21T05:47:19.101Z,4.2
2022-09-21T05:48:19.097Z,4.2
2022-09-21T05:49:19.114Z,4.2
2022-09-21T05:50:19.099Z,4.2
2022-09-21T05:51:19.106Z,4.2
2022-09-21T05:52:19.171Z,4.2
2022-09-21T05:53:19.097Z,4.2
2022-09-21T05:54:19.104Z,4.2
2022-09-21T05:55:19.098Z,4.3
2022-09-21T05:56:19.086Z,4.3
2022-09-21T05:57:19.087Z,4.3
2022-09-21T05:58:19.094Z,4.3
2022-09-21T05:59:19.097Z,4.4
2022-09-21T06:00:19.126Z,4.4
2022-09-21T06:01:19.155Z,4.4
2022-09-21T06:02:19.097Z,4.4
2022-09-21T06:03:19.094Z,4.4
2022-09-21T06:04:19.101Z,4.4
2022-09-21T06:05:19.211Z,4.4
2022-09-21T06:06:19.089Z,4.5
2022-09-21T06:07:19.094Z,4.5
2022-09-21T06:08:19.080Z,4.5
2022-09-21T06:09:19.089Z,4.5
2022-09-21T06:10:19.100Z,4.6
2022-09-21T06:11:19.103Z,4.6
2022-09-21T06:12:19.098Z,4.6
2022-09-21T06:13:19.112Z,4.7
2022-09-21T06:14:19.114Z,4.7
2022-09-21T06:15:19.103Z,4.7
2022-09-21T06:16:19.130Z,4.8
2022-09-21T06:17:19.086Z,4.8
2022-09-21T06:18:19.091Z,4.8
2022-09-21T06:19:19.097Z,4.8
2022-09-21T06:20:19.100Z,4.8
2022-09-21T06:21:19.087Z,4.9
2022-09-21T06:22:19.113Z,4.9
2022-09-21T06:23:19.101Z,4.9
2022-09-21T06:24:19.097Z,5
2022-09-21T06:25:19.645Z,5
2022-09-21T06:26:19.120Z,5
2022-09-21T06:27:19.083Z,5.1
2022-09-21T06:28:19.095Z,5.1
2022-09-21T06:29:19.092Z,5.2
2022-09-21T06:30:19.132Z,5.2
2022-09-21T06:31:19.100Z,5.2
2022-09-21T06:32:20.801Z,5.2
2022-09-21T06:33:19.084Z,5.3
2022-09-21T06:34:19.099Z,5.3
2022-09-21T06:35:19.104Z,5.4
2022-09-21T06:36:19.098Z,5.4
2022-09-21T06:37:19.229Z,5.5
2022-09-21T06:38:19.353Z,5.5
2022-09-21T06:39:19.225Z,5.5
2022-09-21T06:40:19.180Z,5.6
2022-09-21T06:41:21.342Z,5.6
2022-09-21T06:42:19.069Z,5.7
2022-09-21T06:43:19.221Z,5.7
2022-09-21T06:44:19.107Z,5.7
2022-09-21T06:45:19.278Z,5.7
2022-09-21T06:46:19.629Z,5.8
2022-09-21T06:47:19.361Z,5.8
2022-09-21T06:48:20.187Z,5.9
2022-09-21T06:49:20.095Z,5.9
2022-09-21T06:50:19.361Z,6
2022-09-21T06:51:19.069Z,6
2022-09-21T06:52:19.064Z,6.1
2022-09-21T06:53:19.308Z,6.1
2022-09-21T06:54:19.527Z,6.1
2022-09-21T06:55:19.119Z,6.1
2022-09-21T06:56:19.124Z,6.2
2022-09-21T06:57:19.431Z,6.2
2022-09-21T06:58:19.703Z,6.3
2022-09-21T06:59:19.522Z,6.4
2022-09-21T07:00:19.783Z,6.4
2022-09-21T07:01:19.160Z,6.5
2022-09-21T07:02:19.412Z,6.5
2022-09-21T07:03:19.101Z,6.6
2022-09-21T07:04:21.956Z,6.6
2022-09-21T07:05:19.092Z,6.6
2022-09-21T07:06:19.087Z,6.7
2022-09-21T07:07:19.098Z,6.7
2022-09-21T07:10:20.796Z,6.9
2022-09-21T07:11:19.096Z,7
2022-09-21T07:12:19.089Z,7.1
2022-09-21T07:13:19.102Z,7.1
2022-09-21T07:14:19.107Z,7.2
2022-09-21T07:15:19.099Z,7.2
2022-09-21T07:16:19.143Z,7.2
2022-09-21T07:17:19.093Z,7.2
2022-09-21T07:18:19.097Z,7.3
2022-09-21T07:19:19.099Z,7.3
2022-09-21T07:20:19.111Z,7.4
2022-09-21T07:21:19.097Z,7.5
2022-09-21T07:22:19.089Z,7.5
2022-09-21T07:23:19.085Z,7.6
2022-09-21T07:24:19.085Z,7.6
2022-09-21T07:25:19.086Z,7.7
2022-09-21T07:26:19.098Z,7.7
2022-09-21T07:27:19.093Z,7.7
2022-09-21T07:28:19.111Z,7.7
2022-09-21T07:29:19.095Z,7.8
2022-09-21T07:30:19.103Z,7.8
2022-09-21T07:31:19.132Z,7.9
2022-09-21T07:32:19.331Z,7.9
2022-09-21T07:33:19.095Z,8
2022-09-21T07:34:19.097Z,8
2022-09-21T07:35:19.097Z,8
2022-09-21T07:36:19.094Z,8.1
2022-09-21T07:37:19.086Z,8.1
2022-09-21T07:38:19.102Z,8.2
2022-09-21T07:39:19.101Z,8.2
2022-09-21T07:40:23.056Z,8.3
2022-09-21T07:41:19.111Z,8.3
2022-09-21T07:42:19.334Z,8.4
2022-09-21T07:43:19.091Z,8.4
2022-09-21T07:44:19.090Z,8.4
2022-09-21T07:45:19.146Z,8.4
2022-09-21T07:46:19.088Z,8.4
2022-09-21T07:47:19.099Z,8.5
2022-09-21T07:48:19.095Z,8.5
2022-09-21T07:49:19.090Z,8.6
2022-09-21T07:50:19.099Z,8.6
2022-09-21T07:51:19.114Z,8.7
2022-09-21T07:52:19.239Z,8.7
2022-09-21T07:53:19.216Z,8.7
2022-09-21T07:54:19.110Z,8.8
2022-09-21T07:55:19.392Z,8.8
2022-09-21T07:56:19.645Z,8.9
2022-09-21T07:57:19.934Z,8.9
2022-09-21T07:58:19.419Z,9
2022-09-21T07:59:19.090Z,9
2022-09-21T08:00:19.089Z,9
2022-09-21T08:01:19.173Z,9
2022-09-21T08:02:19.153Z,9.1
2022-09-21T08:03:19.086Z,9.1
2022-09-21T08:04:19.099Z,9.2
2022-09-21T08:05:19.096Z,9.2
2022-09-21T08:06:19.106Z,9.3
2022-09-21T08:07:19.095Z,9.3
2022-09-21T08:08:19.099Z,9.4
2022-09-21T08:09:19.098Z,9.4
2022-09-21T08:10:19.088Z,9.5
2022-09-21T08:11:19.094Z,9.5
2022-09-21T08:12:19.104Z,9.6
2022-09-21T08:13:19.122Z,9.6
2022-09-21T08:14:22.370Z,9.6
2022-09-21T08:15:37.278Z,9.7
2022-09-21T08:16:19.158Z,9.7
2022-09-21T08:17:19.096Z,9.8
2022-09-21T08:18:19.100Z,9.8
2022-09-21T08:19:19.095Z,9.8
2022-09-21T08:20:19.091Z,9.8
2022-09-21T08:21:19.105Z,9.8
2022-09-21T08:22:19.137Z,9.9
2022-09-21T08:23:19.088Z,9.9
2022-09-21T08:24:19.101Z,10
2022-09-21T08:25:19.094Z,10
2022-09-21T08:26:19.170Z,10
2022-09-21T08:27:19.079Z,10.1
2022-09-21T08:28:19.096Z,10.1
2022-09-21T08:29:19.101Z,10.1
2022-09-21T08:30:19.099Z,10.2
2022-09-21T08:31:19.150Z,10.2
2022-09-21T08:32:39.627Z,10.3
2022-09-21T08:33:19.158Z,10.3
2022-09-21T08:34:19.108Z,10.4
2022-09-21T08:35:19.098Z,10.4
2022-09-21T08:36:19.094Z,10.5
2022-09-21T08:37:19.083Z,10.5
2022-09-21T08:38:19.251Z,10.6
2022-09-21T08:39:19.468Z,10.6
2022-09-21T08:40:19.500Z,10.6
2022-09-21T08:41:19.735Z,10.6
2022-09-21T08:42:19.167Z,10.7
2022-09-21T08:43:19.078Z,10.7
2022-09-21T08:44:19.340Z,10.8
2022-09-21T08:45:19.083Z,10.8
2022-09-21T08:46:19.174Z,10.9
2022-09-21T08:47:19.144Z,10.9
2022-09-21T08:48:20.996Z,11
2022-09-21T08:49:19.094Z,11
2022-09-21T08:50:19.232Z,11
2022-09-21T08:51:19.106Z,11.1
2022-09-21T08:52:19.058Z,11.2
2022-09-21T08:53:19.227Z,11.2
2022-09-21T08:54:19.083Z,11.3
2022-09-21T08:55:19.248Z,11.3
2022-09-21T08:56:19.266Z,11.4
2022-09-21T08:57:19.107Z,11.4
2022-09-21T08:58:19.099Z,11.5
2022-09-21T08:59:19.105Z,11.5
2022-09-21T09:00:19.091Z,11.5
2022-09-21T09:01:19.160Z,11.6
2022-09-21T09:02:19.157Z,11.7
2022-09-21T09:03:19.126Z,11.7
2022-09-21T09:04:19.108Z,11.7
2022-09-21T09:05:19.092Z,11.8
2022-09-21T09:06:21.444Z,11.8
2022-09-21T09:07:19.102Z,11.9
2022-09-21T09:08:19.125Z,12
2022-09-21T09:09:19.090Z,12
2022-09-21T09:10:19.101Z,12.1
2022-09-21T09:11:19.116Z,12.2
2022-09-21T09:12:19.093Z,12.2
2022-09-21T09:13:19.121Z,12.3
2022-09-21T09:14:19.082Z,12.4
2022-09-21T09:15:19.105Z,12.4
2022-09-21T09:16:19.255Z,12.5
2022-09-21T09:17:19.250Z,12.5
2022-09-21T09:18:19.107Z,12.6
2022-09-21T09:19:19.092Z,12.7
2022-09-21T09:20:19.096Z,12.7
2022-09-21T09:21:26.903Z,12.8
2022-09-21T09:22:19.119Z,12.9
2022-09-21T09:23:19.122Z,12.9
2022-09-21T09:24:19.107Z,13
2022-09-21T09:25:19.101Z,13
2022-09-21T09:26:19.126Z,13
2022-09-21T09:27:19.115Z,13.1
2022-09-21T09:28:19.243Z,13.1
2022-09-21T09:29:19.091Z,13.1
2022-09-21T09:30:19.089Z,13.1
2022-09-21T09:31:19.170Z,13.2
2022-09-21T09:32:19.094Z,13.2
2022-09-21T09:33:19.110Z,13.3
2022-09-21T09:34:19.084Z,13.3
2022-09-21T09:35:19.110Z,13.3
2022-09-21T09:36:30.199Z,13.4
2022-09-21T09:37:19.097Z,13.4
2022-09-21T09:38:19.108Z,13.5
2022-09-21T09:39:19.090Z,13.5
2022-09-21T09:40:19.126Z,13.5
2022-09-21T09:41:19.128Z,13.6
2022-09-21T09:42:19.091Z,13.6
2022-09-21T09:43:19.093Z,13.7
2022-09-21T09:44:19.061Z,13.7
2022-09-21T09:45:19.806Z,13.8
2022-09-21T09:46:19.177Z,13.9
2022-09-21T09:47:19.168Z,13.9
2022-09-21T09:48:19.081Z,14
2022-09-21T09:49:19.075Z,14
2022-09-21T09:50:19.215Z,14
2022-09-21T09:51:19.073Z,14.1
2022-09-21T09:52:19.125Z,14.1
2022-09-21T09:53:19.100Z,14.2
2022-09-21T09:54:19.487Z,14.2
2022-09-21T09:55:19.746Z,14.2
2022-09-21T09:56:19.185Z,14.2
2022-09-21T09:57:19.258Z,14.3
2022-09-21T09:58:19.581Z,14.2
2022-09-21T09:59:19.103Z,14.2
2022-09-21T10:00:19.082Z,14.2
2022-09-21T10:01:19.137Z,14.2
2022-09-21T10:02:19.094Z,14.1
2022-09-21T10:03:19.227Z,14.1
2022-09-21T10:04:19.171Z,14
2022-09-21T10:05:19.160Z,13.9
2022-09-21T10:06:19.059Z,13.9
2022-09-21T10:07:19.175Z,13.8
2022-09-21T10:08:19.521Z,13.8
2022-09-21T10:09:19.302Z,13.7
2022-09-21T10:10:19.521Z,13.7
2022-09-21T10:11:19.132Z,13.7
2022-09-21T10:12:19.979Z,13.7
2022-09-21T10:13:19.069Z,13.7
2022-09-21T10:14:19.191Z,13.7
2022-09-21T10:15:19.097Z,13.7
2022-09-21T10:16:19.161Z,13.8
2022-09-21T10:17:19.383Z,13.8
2022-09-21T10:18:19.101Z,13.8
2022-09-21T10:19:19.110Z,13.8
2022-09-21T10:20:19.114Z,13.8
2022-09-21T10:21:19.106Z,13.9
2022-09-21T10:22:19.107Z,14
2022-09-21T10:23:19.101Z,14
2022-09-21T10:24:19.094Z,14.1
2022-09-21T10:25:19.091Z,14.2
2022-09-21T10:26:19.143Z,14.3
2022-09-21T10:27:19.098Z,14.4
2022-09-21T10:28:19.106Z,14.5
2022-09-21T10:29:19.114Z,14.6
2022-09-21T10:30:19.096Z,14.6
2022-09-21T10:31:19.320Z,14.7
2022-09-21T10:32:19.115Z,14.7
2022-09-21T10:33:19.349Z,14.8
2022-09-21T10:34:19.101Z,14.8
2022-09-21T10:35:19.119Z,14.8
2022-09-21T10:36:19.100Z,14.8
2022-09-21T10:37:19.095Z,14.8
2022-09-21T10:38:22.310Z,14.9
2022-09-21T10:39:19.108Z,14.9
2022-09-21T10:40:19.138Z,14.9
2022-09-21T10:41:19.087Z,15
2022-09-21T10:42:19.085Z,15
2022-09-21T10:43:19.123Z,15.1
2022-09-21T10:44:19.104Z,15.1
2022-09-21T10:45:19.316Z,15.1
2022-09-21T10:46:19.160Z,15.2
2022-09-21T10:47:19.099Z,15.2
2022-09-21T10:48:19.098Z,15.3
2022-09-21T10:49:19.089Z,15.3
2022-09-21T10:50:19.085Z,15.3
2022-09-21T10:51:19.103Z,15.3
2022-09-21T10:52:19.095Z,15.3
2022-09-21T10:53:19.106Z,15.4
2022-09-21T10:54:19.112Z,15.4
2022-09-21T10:55:19.100Z,15.4
2022-09-21T10:56:19.299Z,15.4
2022-09-21T10:57:19.102Z,15.5
2022-09-21T10:58:19.087Z,15.5
2022-09-21T10:59:19.087Z,15.4
2022-09-21T11:00:19.103Z,15.5
2022-09-21T11:01:19.124Z,15.5
2022-09-21T11:02:19.123Z,15.5
2022-09-21T11:03:19.100Z,15.5
2022-09-21T11:04:19.119Z,15.5
2022-09-21T11:05:19.101Z,15.5
2022-09-21T11:06:19.114Z,15.6
2022-09-21T11:07:19.097Z,15.6
2022-09-21T11:08:19.090Z,15.6
2022-09-21T11:09:19.088Z,15.6
2022-09-21T11:10:19.195Z,15.6
2022-09-21T11:11:19.108Z,15.6
2022-09-21T11:12:19.090Z,15.7
2022-09-21T11:13:19.092Z,15.7
2022-09-21T11:14:19.085Z,15.7
2022-09-21T11:15:19.096Z,15.6
2022-09-21T11:16:19.132Z,15.7
2022-09-21T11:17:19.099Z,15.7
2022-09-21T11:18:19.219Z,15.7
2022-09-21T11:19:19.090Z,15.7
2022-09-21T11:20:19.155Z,15.7
2022-09-21T11:21:19.113Z,15.6
2022-09-21T11:22:19.077Z,15.6
2022-09-21T11:23:19.091Z,15.5
2022-09-21T11:24:19.089Z,15.5
2022-09-21T11:25:19.092Z,15.5
2022-09-21T11:26:19.092Z,15.5
2022-09-21T11:27:19.104Z,15.5
2022-09-21T11:28:19.100Z,15.4
2022-09-21T11:29:19.121Z,15.4
2022-09-21T11:30:19.282Z,15.4
2022-09-21T11:31:19.203Z,15.3
2022-09-21T11:32:19.080Z,15.3
2022-09-21T11:33:19.103Z,15.3
2022-09-21T11:34:19.085Z,15.2
2022-09-21T11:35:19.123Z,15.1
2022-09-21T11:36:19.096Z,15.1
2022-09-21T11:37:19.099Z,15.1
2022-09-21T11:38:19.096Z,15
2022-09-21T11:39:19.098Z,15
2022-09-21T11:40:19.223Z,14.9
2022-09-21T11:41:19.109Z,14.9
2022-09-21T11:42:19.100Z,14.9
2022-09-21T11:43:21.325Z,14.9
2022-09-21T11:44:19.358Z,14.9
2022-09-21T11:45:19.117Z,14.9
2022-09-21T11:46:19.220Z,14.9
2022-09-21T11:47:19.070Z,15
2022-09-21T11:48:19.173Z,14.9
2022-09-21T11:49:19.093Z,14.9
2022-09-21T11:50:30.070Z,15
2022-09-21T11:51:19.126Z,15
2022-09-21T11:52:19.932Z,15
2022-09-21T11:53:19.719Z,15.1
2022-09-21T11:54:19.932Z,15.1
2022-09-21T11:55:19.198Z,15.1
2022-09-21T11:56:19.411Z,15.2
2022-09-21T11:57:19.170Z,15.2
2022-09-21T11:58:19.180Z,15.3
2022-09-21T11:59:19.508Z,15.3
2022-09-21T12:00:19.092Z,15.4
2022-09-21T12:01:19.322Z,15.4
2022-09-21T12:02:19.837Z,15.5
2022-09-21T12:03:19.117Z,15.5
2022-09-21T12:04:19.461Z,15.6
2022-09-21T12:05:19.401Z,15.6
2022-09-21T12:06:19.094Z,15.6
2022-09-21T12:07:19.099Z,15.7
2022-09-21T12:08:19.103Z,15.7
2022-09-21T12:09:19.098Z,15.8
2022-09-21T12:10:19.095Z,15.8
2022-09-21T12:11:19.113Z,15.9
2022-09-21T12:12:19.095Z,15.9
2022-09-21T12:13:19.171Z,15.9
2022-09-21T12:14:19.186Z,15.9
2022-09-21T12:15:19.143Z,16
2022-09-21T12:16:19.116Z,16
2022-09-21T12:17:19.106Z,16
2022-09-21T12:18:19.108Z,16.1
2022-09-21T12:19:19.086Z,16.1
2022-09-21T12:20:19.115Z,16.1
2022-09-21T12:21:19.097Z,16.1
2022-09-21T12:22:19.102Z,16.1
2022-09-21T12:23:19.149Z,16.1
2022-09-21T12:24:19.110Z,16.2
2022-09-21T12:25:19.094Z,16.2
2022-09-21T12:26:19.231Z,16.2
2022-09-21T12:27:19.092Z,16.2
2022-09-21T12:28:19.126Z,16.2
2022-09-21T12:29:19.138Z,16.2
2022-09-21T12:30:19.087Z,16.2
2022-09-21T12:31:19.117Z,16.2
2022-09-21T12:32:19.085Z,16.2
2022-09-21T12:33:19.147Z,16.3
2022-09-21T12:34:19.115Z,16.4
2022-09-21T12:35:19.104Z,16.4
2022-09-21T12:36:19.140Z,16.5
2022-09-21T12:37:19.098Z,16.5
2022-09-21T12:38:19.342Z,16.5
2022-09-21T12:39:19.105Z,16.5
2022-09-21T12:40:19.138Z,16.5
2022-09-21T12:41:19.133Z,16.6
2022-09-21T12:42:19.087Z,16.5
2022-09-21T12:43:19.097Z,16.5
2022-09-21T12:44:19.101Z,16.5
2022-09-21T12:45:19.113Z,16.5
2022-09-21T12:46:19.158Z,16.5
2022-09-21T12:47:19.112Z,16.5
2022-09-21T12:48:19.248Z,16.5
2022-09-21T12:49:19.089Z,16.5
2022-09-21T12:50:19.114Z,16.5
2022-09-21T12:51:19.089Z,16.5
2022-09-21T12:52:19.059Z,16.5
2022-09-21T12:53:19.213Z,16.5
2022-09-21T12:54:19.063Z,16.5
2022-09-21T12:55:19.210Z,16.5
2022-09-21T12:56:19.064Z,16.5
2022-09-21T12:57:38.493Z,16.5
2022-09-21T12:58:19.188Z,16.6
2022-09-21T12:59:19.173Z,16.6
2022-09-21T13:00:19.444Z,16.6
2022-09-21T13:01:19.553Z,16.7
2022-09-21T13:02:19.323Z,16.7
2022-09-21T13:03:19.491Z,16.7
2022-09-21T13:04:19.201Z,16.7
2022-09-21T13:05:19.513Z,16.7
2022-09-21T13:06:19.317Z,16.7
2022-09-21T13:07:19.086Z,16.7
2022-09-21T13:08:19.115Z,16.8
2022-09-21T13:09:19.120Z,16.8
2022-09-21T13:10:19.097Z,16.8
2022-09-21T13:11:19.119Z,16.8
2022-09-21T13:12:19.102Z,16.8
2022-09-21T13:13:19.097Z,16.8
2022-09-21T13:14:19.065Z,16.8
2022-09-21T13:15:19.101Z,16.8
2022-09-21T13:16:19.198Z,16.8
2022-09-21T13:17:19.092Z,16.8
2022-09-21T13:18:19.236Z,16.8
2022-09-21T13:19:19.075Z,16.8
2022-09-21T13:20:19.166Z,16.8
2022-09-21T13:21:19.087Z,16.8
2022-09-21T13:22:19.459Z,16.8
2022-09-21T13:23:19.661Z,16.7
2022-09-21T13:24:19.286Z,16.7
2022-09-21T13:25:19.374Z,16.7
2022-09-21T13:26:22.762Z,16.7
2022-09-21T13:27:19.496Z,16.7
2022-09-21T13:28:19.068Z,16.7
2022-09-21T13:29:19.158Z,16.7
2022-09-21T13:30:19.123Z,16.7
2022-09-21T13:31:36.949Z,16.7
2022-09-21T13:32:19.420Z,16.8
2022-09-21T13:33:19.109Z,16.8
2022-09-21T13:34:19.096Z,16.8
2022-09-21T13:35:19.149Z,16.8
2022-09-21T13:36:19.086Z,16.8
2022-09-21T13:37:19.096Z,16.8
2022-09-21T13:38:19.097Z,16.8
2022-09-21T13:39:19.097Z,16.9
2022-09-21T13:40:19.138Z,16.9
2022-09-21T13:41:19.102Z,16.9